Greenville Spartanburg International Airport
KGSP : now visible

Airfield :











YOU CAN JOIN US ON...

 
LOGIN :

Register | Disclaimer

   EN    FR    IT 

 









Legend :    VFR   Marginal VFR   IFR   Intensive IFR   Very Intensive IFR
Visi :
Ceiling :
>= 8 km
>= 3000ft
5 to 8 km
1000 to 3000 ft
1500m to 5 km
500 to 1000 ft
800 to 1500m
200 to 500 ft
< 800m
< 200 ft
Symbols :   Thunderstorms  Fog  Heavy snow  Heavy precipitations  Wind > 20 kt






- Airport Elevation : 964 ft
- IATA code : GSP


KGSP - Greenville Spartanburg International

CURRENT METAR :
  • 031358Z 12004KT 10SM SCT011 SCT026 26/22 A3006 RMK AO2 T02610222

EXPIRED METARs :
  • 031353Z 12004KT 10SM FEW008 BKN013 BKN026 26/22 A3007 RMK AO2 SLP169 T02560222
  • 031327Z 12006KT 10SM FEW008 BKN013 OVC055 25/22 A3007 RMK AO2 T02500222
  • 031253Z 10005KT 10SM FEW009 BKN050 OVC090 24/22 A3005 RMK AO2 SLP165 T02440217
  • 031206Z VRB03KT 10SM FEW003 FEW013 OVC050 23/22 A3006 RMK AO2 LTG DSNT NE T02280217
  • 031153Z 06004KT 10SM SCT048 BKN060 OVC080 22/21 A3005 RMK AO2 LTG DSNT NE RAE25 SLP165 P0000 60000 70047 T02220211 10233 20222 53007
  • 031116Z 03004KT 8SM -RA SCT048 BKN060 OVC080 22/21 A3004 RMK AO2 LTG DSNT N AND NE P0000 T02220211

TAF KGSP
Valid from the 03 at 14:00 until the 04 at 12:00 UTC


031335Z 0314/0412 12006KT P6SM VCSH BKN015
FM031700 05006KT P6SM VCSH BKN045
TEMPO 0317/0321 3SM TSRA BR OVC040CB
FM032100 09009KT P6SM -SHRA BKN040
FM040500 34003KT P6SM SCT070
FM040900 30003KT 5SM BR SCT012
KZTL FIR / North America



MET'MAP, your aeronautical weather chart ! - Copyright ORBIFLY December 2007 - Disclaimer

ORBIFLY MET'MAP TEAM :

Programming & Development : Alexandra Zaïnal
Concept & original design : Baudouin d'Aumeries
Assistance for programming : Marc-Olivier Méhu
Technical & hardware support : Manuel Goepfert

Contact : metmap@orbifly.com




SOURCES & CREDITS :

   NOAA       Earth
Advisory